RYR90LN LIMP-LIEE
Flight info
| Callsign | RYR90LN |
|---|---|
| Flight time | 0h 56m |
| Altitude | 19000 |
| Route | OSBUL L153 BEROK/N0434F370 DCT UREXE DCT VAVAX/N0336F190 Q125 KOVAS |
| Aircraft | B738/M-SDE2E3FGHIRWXY/LB1 |
Departure
| Time | 2026-05-04 15:46 |
|---|---|
| Airport | Parma Airport (LIMP) |
Arrival
| Time | 2026-05-04 16:42 |
|---|---|
| Airport | Cagliari Elmas Airport (LIEE) |
| Time | Latitude | Longitude | Altitude | Speed | Heading |
|---|---|---|---|---|---|
| 2026-05-04 15:14 | 44.82039 | 10.29767 | 164 ft | 0 kts | 144° |
| 2026-05-04 15:40 | 44.82031 | 10.29768 | 163 ft | 2 kts | 184° |
| 2026-05-04 15:40 | 44.82026 | 10.29750 | 165 ft | 2 kts | 277° |
| 2026-05-04 15:41 | 44.82034 | 10.29732 | 165 ft | 2 kts | 300° |
| 2026-05-04 15:41 | 44.82036 | 10.29706 | 165 ft | 4 kts | 253° |
| 2026-05-04 15:41 | 44.82012 | 10.29685 | 166 ft | 5 kts | 200° |
| 2026-05-04 15:41 | 44.81980 | 10.29655 | 166 ft | 7 kts | 235° |
| 2026-05-04 15:42 | 44.81956 | 10.29591 | 166 ft | 8 kts | 242° |
| 2026-05-04 15:42 | 44.81933 | 10.29532 | 167 ft | 0 kts | 242° |
| 2026-05-04 15:43 | 44.81933 | 10.29531 | 167 ft | 1 kts | 242° |
| 2026-05-04 15:43 | 44.81926 | 10.29514 | 167 ft | 3 kts | 241° |
| 2026-05-04 15:43 | 44.81911 | 10.29474 | 168 ft | 6 kts | 242° |
| 2026-05-04 15:44 | 44.81889 | 10.29416 | 169 ft | 8 kts | 242° |
| 2026-05-04 15:44 | 44.81842 | 10.29348 | 168 ft | 12 kts | 197° |
| 2026-05-04 15:44 | 44.81744 | 10.29314 | 167 ft | 15 kts | 173° |
| 2026-05-04 15:44 | 44.81673 | 10.29286 | 168 ft | 6 kts | 281° |
| 2026-05-04 15:45 | 44.81707 | 10.29287 | 168 ft | 6 kts | 27° |
| 2026-05-04 15:45 | 44.81734 | 10.29299 | 167 ft | 6 kts | 17° |
| 2026-05-04 15:45 | 44.81923 | 10.29379 | 169 ft | 65 kts | 17° |
| 2026-05-04 15:45 | 44.82608 | 10.29681 | 163 ft | 138 kts | 18° |
| 2026-05-04 15:46 | 44.83628 | 10.30133 | 663 ft | 153 kts | 15° |
| 2026-05-04 15:46 | 44.84609 | 10.30561 | 1623 ft | 153 kts | 15° |
| 2026-05-04 15:46 | 44.85695 | 10.31054 | 2163 ft | 179 kts | 20° |
| 2026-05-04 15:46 | 44.86730 | 10.32257 | 2631 ft | 206 kts | 56° |
| 2026-05-04 15:47 | 44.87018 | 10.34231 | 3381 ft | 211 kts | 100° |
| 2026-05-04 15:47 | 44.86302 | 10.35979 | 4109 ft | 209 kts | 144° |
| 2026-05-04 15:47 | 44.84989 | 10.36741 | 4966 ft | 205 kts | 166° |
| 2026-05-04 15:47 | 44.83589 | 10.37230 | 5517 ft | 219 kts | 169° |
| 2026-05-04 15:48 | 44.81973 | 10.37332 | 5825 ft | 247 kts | 181° |
| 2026-05-04 15:48 | 44.80177 | 10.37208 | 6411 ft | 263 kts | 183° |
| 2026-05-04 15:48 | 44.76489 | 10.36938 | 8316 ft | 267 kts | 182° |
| 2026-05-04 15:49 | 44.74628 | 10.36834 | 9233 ft | 270 kts | 182° |
| 2026-05-04 15:49 | 44.72743 | 10.36745 | 10162 ft | 272 kts | 181° |
| 2026-05-04 15:49 | 44.70799 | 10.36666 | 10644 ft | 291 kts | 181° |
| 2026-05-04 15:49 | 44.68707 | 10.36590 | 10841 ft | 317 kts | 181° |
| 2026-05-04 15:50 | 44.66450 | 10.36517 | 11342 ft | 330 kts | 181° |
| 2026-05-04 15:50 | 44.64124 | 10.36447 | 12082 ft | 336 kts | 182° |
| 2026-05-04 15:50 | 44.61770 | 10.36381 | 12869 ft | 341 kts | 182° |
| 2026-05-04 15:50 | 44.59379 | 10.36315 | 13615 ft | 347 kts | 182° |
| 2026-05-04 15:51 | 44.56941 | 10.36249 | 14290 ft | 353 kts | 182° |
| 2026-05-04 15:51 | 44.54469 | 10.36183 | 14976 ft | 357 kts | 182° |
| 2026-05-04 15:51 | 44.51973 | 10.36117 | 15703 ft | 361 kts | 183° |
| 2026-05-04 15:51 | 44.49479 | 10.36052 | 16379 ft | 365 kts | 183° |
| 2026-05-04 15:52 | 44.46925 | 10.35986 | 17062 ft | 369 kts | 183° |
| 2026-05-04 15:52 | 44.44342 | 10.35918 | 17750 ft | 374 kts | 183° |
| 2026-05-04 15:52 | 44.41727 | 10.35850 | 18407 ft | 378 kts | 183° |
| 2026-05-04 15:52 | 44.39089 | 10.35781 | 19018 ft | 381 kts | 183° |
| 2026-05-04 15:53 | 44.36432 | 10.35713 | 19650 ft | 383 kts | 183° |
| 2026-05-04 15:53 | 44.33754 | 10.35644 | 20250 ft | 386 kts | 183° |
| 2026-05-04 15:53 | 44.31058 | 10.35573 | 20844 ft | 389 kts | 183° |
| 2026-05-04 15:53 | 44.28345 | 10.35501 | 21442 ft | 392 kts | 183° |
| 2026-05-04 15:54 | 44.25602 | 10.35431 | 21993 ft | 396 kts | 183° |
| 2026-05-04 15:54 | 44.22837 | 10.35360 | 22539 ft | 399 kts | 183° |
| 2026-05-04 15:54 | 44.20085 | 10.35289 | 23084 ft | 402 kts | 183° |
| 2026-05-04 15:54 | 44.17275 | 10.35214 | 23617 ft | 406 kts | 184° |
| 2026-05-04 15:55 | 44.14459 | 10.34908 | 24060 ft | 407 kts | 189° |
| 2026-05-04 15:55 | 44.11647 | 10.34340 | 24490 ft | 410 kts | 191° |
| 2026-05-04 15:55 | 44.08828 | 10.33686 | 24914 ft | 412 kts | 192° |
| 2026-05-04 15:55 | 44.05996 | 10.33009 | 25358 ft | 414 kts | 192° |
| 2026-05-04 15:56 | 44.03139 | 10.32334 | 25764 ft | 417 kts | 192° |
| 2026-05-04 15:56 | 44.00270 | 10.31676 | 26172 ft | 420 kts | 192° |
| 2026-05-04 15:56 | 43.97373 | 10.31021 | 26574 ft | 423 kts | 192° |
| 2026-05-04 15:56 | 43.94458 | 10.30367 | 26925 ft | 426 kts | 192° |
| 2026-05-04 15:57 | 43.91566 | 10.29728 | 27313 ft | 428 kts | 192° |
| 2026-05-04 15:57 | 43.88616 | 10.29087 | 27678 ft | 430 kts | 192° |
| 2026-05-04 15:57 | 43.85650 | 10.28446 | 28039 ft | 433 kts | 192° |
| 2026-05-04 15:57 | 43.82664 | 10.27802 | 28387 ft | 436 kts | 193° |
| 2026-05-04 15:58 | 43.79660 | 10.27153 | 28731 ft | 438 kts | 193° |
| 2026-05-04 15:58 | 43.76641 | 10.26502 | 29071 ft | 441 kts | 193° |
| 2026-05-04 15:58 | 43.73600 | 10.25845 | 29402 ft | 443 kts | 193° |
| 2026-05-04 15:58 | 43.70546 | 10.25187 | 29727 ft | 445 kts | 193° |
| 2026-05-04 15:59 | 43.67478 | 10.24525 | 30042 ft | 448 kts | 193° |
| 2026-05-04 15:59 | 43.64387 | 10.23859 | 30324 ft | 450 kts | 193° |
| 2026-05-04 15:59 | 43.61299 | 10.23195 | 30611 ft | 451 kts | 193° |
| 2026-05-04 15:59 | 43.58244 | 10.22540 | 30999 ft | 449 kts | 194° |
| 2026-05-04 16:00 | 43.55166 | 10.21882 | 31465 ft | 445 kts | 194° |
| 2026-05-04 16:00 | 43.52117 | 10.21231 | 31931 ft | 442 kts | 194° |
| 2026-05-04 16:00 | 43.49079 | 10.20582 | 32326 ft | 440 kts | 195° |
| 2026-05-04 16:00 | 43.46061 | 10.19936 | 32704 ft | 439 kts | 195° |
| 2026-05-04 16:01 | 43.43052 | 10.19293 | 33120 ft | 436 kts | 195° |
| 2026-05-04 16:01 | 43.40057 | 10.18654 | 33559 ft | 433 kts | 196° |
| 2026-05-04 16:01 | 43.37086 | 10.18021 | 33991 ft | 431 kts | 196° |
| 2026-05-04 16:01 | 43.34135 | 10.17392 | 34349 ft | 428 kts | 197° |
| 2026-05-04 16:02 | 43.31193 | 10.16765 | 34620 ft | 428 kts | 197° |
| 2026-05-04 16:02 | 43.28282 | 10.16143 | 34839 ft | 429 kts | 197° |
| 2026-05-04 16:02 | 43.22395 | 10.14890 | 35411 ft | 427 kts | 197° |
| 2026-05-04 16:03 | 43.19456 | 10.14268 | 35664 ft | 427 kts | 197° |
| 2026-05-04 16:03 | 43.16520 | 10.13644 | 35875 ft | 427 kts | 197° |
| 2026-05-04 16:03 | 43.13580 | 10.13020 | 36119 ft | 427 kts | 197° |
| 2026-05-04 16:03 | 43.10646 | 10.12400 | 36368 ft | 427 kts | 196° |
| 2026-05-04 16:04 | 43.07708 | 10.11779 | 36611 ft | 427 kts | 196° |
| 2026-05-04 16:04 | 43.01842 | 10.10541 | 37060 ft | 427 kts | 196° |
| 2026-05-04 16:04 | 42.98896 | 10.09918 | 37058 ft | 430 kts | 196° |
| 2026-05-04 16:05 | 42.93024 | 10.08683 | 37062 ft | 428 kts | 196° |
| 2026-05-04 16:06 | 42.84263 | 10.06849 | 37064 ft | 423 kts | 196° |
| 2026-05-04 16:07 | 42.72671 | 10.04423 | 37066 ft | 421 kts | 196° |
| 2026-05-04 16:08 | 42.61105 | 10.02008 | 37064 ft | 423 kts | 196° |
| 2026-05-04 16:09 | 42.46444 | 9.98963 | 37078 ft | 429 kts | 196° |
| 2026-05-04 16:10 | 42.34610 | 9.96519 | 37069 ft | 433 kts | 196° |
| 2026-05-04 16:11 | 42.22701 | 9.94070 | 37052 ft | 433 kts | 196° |
| 2026-05-04 16:12 | 42.04933 | 9.90431 | 37058 ft | 430 kts | 196° |
| 2026-05-04 16:13 | 41.93139 | 9.88026 | 37077 ft | 428 kts | 196° |
| 2026-05-04 16:14 | 41.81398 | 9.85640 | 37059 ft | 427 kts | 196° |
| 2026-05-04 16:16 | 41.66740 | 9.82674 | 37058 ft | 426 kts | 196° |
| 2026-05-04 16:17 | 41.52125 | 9.79730 | 37058 ft | 426 kts | 196° |
| 2026-05-04 16:18 | 41.40388 | 9.77375 | 37054 ft | 427 kts | 196° |
| 2026-05-04 16:19 | 41.25731 | 9.74448 | 37048 ft | 427 kts | 196° |
| 2026-05-04 16:20 | 41.16834 | 9.72675 | 35758 ft | 430 kts | 195° |
| 2026-05-04 16:20 | 41.10975 | 9.71519 | 34788 ft | 421 kts | 195° |
| 2026-05-04 16:21 | 41.02226 | 9.69776 | 33429 ft | 433 kts | 195° |
| 2026-05-04 16:22 | 40.96227 | 9.68591 | 32480 ft | 437 kts | 195° |
| 2026-05-04 16:22 | 40.87471 | 9.65716 | 31099 ft | 430 kts | 207° |
| 2026-05-04 16:23 | 40.79139 | 9.61266 | 29675 ft | 435 kts | 206° |
| 2026-05-04 16:24 | 40.67753 | 9.55444 | 27697 ft | 446 kts | 205° |
| 2026-05-04 16:25 | 40.61903 | 9.52462 | 26570 ft | 452 kts | 204° |
| 2026-05-04 16:26 | 40.50237 | 9.46516 | 24579 ft | 454 kts | 204° |
| 2026-05-04 16:26 | 40.41379 | 9.42015 | 22952 ft | 443 kts | 204° |
| 2026-05-04 16:27 | 40.35765 | 9.39176 | 21929 ft | 422 kts | 204° |
| 2026-05-04 16:28 | 40.27849 | 9.35190 | 20544 ft | 396 kts | 203° |
| 2026-05-04 16:28 | 40.20302 | 9.31394 | 19260 ft | 382 kts | 203° |
| 2026-05-04 16:29 | 40.10352 | 9.26401 | 17458 ft | 377 kts | 202° |
| 2026-05-04 16:30 | 40.03140 | 9.22794 | 16188 ft | 368 kts | 202° |
| 2026-05-04 16:31 | 39.98393 | 9.20424 | 15368 ft | 363 kts | 202° |
| 2026-05-04 16:31 | 39.91349 | 9.16911 | 14131 ft | 360 kts | 202° |
| 2026-05-04 16:32 | 39.84366 | 9.13541 | 12861 ft | 355 kts | 198° |
| 2026-05-04 16:33 | 39.79658 | 9.12004 | 12053 ft | 346 kts | 195° |
| 2026-05-04 16:33 | 39.75069 | 9.10567 | 11250 ft | 334 kts | 195° |
| 2026-05-04 16:34 | 39.70634 | 9.09109 | 10490 ft | 323 kts | 195° |
| 2026-05-04 16:34 | 39.68488 | 9.08395 | 10313 ft | 313 kts | 195° |
| 2026-05-04 16:35 | 39.62488 | 9.06952 | 9431 ft | 301 kts | 180° |
| 2026-05-04 16:35 | 39.56213 | 9.07259 | 7784 ft | 297 kts | 180° |
| 2026-05-04 16:36 | 39.54163 | 9.07259 | 7246 ft | 292 kts | 186° |
| 2026-05-04 16:36 | 39.50732 | 9.04934 | 6398 ft | 277 kts | 219° |
| 2026-05-04 16:37 | 39.47742 | 9.01865 | 5506 ft | 270 kts | 218° |
| 2026-05-04 16:37 | 39.46269 | 9.00393 | 5114 ft | 266 kts | 218° |
| 2026-05-04 16:37 | 39.43392 | 8.97520 | 4325 ft | 259 kts | 218° |
| 2026-05-04 16:38 | 39.40639 | 8.94771 | 3588 ft | 245 kts | 218° |
| 2026-05-04 16:39 | 39.36381 | 8.93181 | 2912 ft | 215 kts | 145° |
| 2026-05-04 16:39 | 39.34248 | 8.95804 | 2066 ft | 197 kts | 139° |
| 2026-05-04 16:40 | 39.32390 | 8.97863 | 1647 ft | 159 kts | 139° |
| 2026-05-04 16:40 | 39.30733 | 8.99588 | 1203 ft | 147 kts | 142° |
| 2026-05-04 16:41 | 39.29095 | 9.01078 | 858 ft | 146 kts | 148° |
| 2026-05-04 16:41 | 39.26746 | 9.03584 | 218 ft | 142 kts | 140° |
| 2026-05-04 16:42 | 39.25067 | 9.05521 | 15 ft | 24 kts | 138° |
| 2026-05-04 16:43 | 39.25092 | 9.05702 | 15 ft | 7 kts | 59° |
| 2026-05-04 16:43 | 39.25138 | 9.05806 | 14 ft | 7 kts | 60° |
| 2026-05-04 16:43 | 39.25168 | 9.05844 | 14 ft | 7 kts | 1° |
| 2026-05-04 16:44 | 39.25391 | 9.05777 | 15 ft | 9 kts | 76° |
| 2026-05-04 16:45 | 39.25340 | 9.05838 | 14 ft | 1 kts | 142° |
| 2026-05-04 16:46 | 39.25339 | 9.05838 | 14 ft | 0 kts | 142° |